Time;durP1;ratioP1;P1;durP2;ratioP2;P2;SDS_P1;SDS_P2;PMS_P1;PMS_P2;Temp;Humidity;BMP_temperature;BMP_pressure;BME280_temperature;BME280_humidity;BME280_pressure;Samples;Min_cycle;Max_cycle;Signal;HPM_P1;HPM_P2
2022/03/23 00:01:55;;;;;;;16.00;12.05;;;11.10;54.30;;;;;;5025384;28;20029;-79
2022/03/23 00:04:21;;;;;;;14.02;11.95;;;11.00;54.20;;;;;;5024261;28;20286;-79
2022/03/23 00:06:47;;;;;;;15.35;11.70;;;11.00;54.20;;;;;;5025823;28;20037;-79
2022/03/23 00:09:14;;;;;;;14.30;12.80;;;11.00;54.30;;;;;;5024299;28;20565;-80
2022/03/23 00:11:41;;;;;;;12.98;11.05;;;10.90;54.10;;;;;;5023739;28;20087;-81
2022/03/23 00:14:09;;;;;;;13.82;12.32;;;10.90;54.20;;;;;;5022127;28;20037;-81
2022/03/23 00:16:36;;;;;;;12.98;11.00;;;10.80;54.00;;;;;;5023151;28;20025;-80
2022/03/23 00:19:04;;;;;;;12.70;11.50;;;10.80;54.10;;;;;;5024406;28;20571;-80
2022/03/23 00:21:31;;;;;;;13.68;12.07;;;10.80;54.10;;;;;;5022837;28;20017;-80
2022/03/23 00:23:57;;;;;;;16.45;11.93;;;10.70;54.00;;;;;;5024180;28;20056;-80
2022/03/23 00:26:23;;;;;;;13.30;11.60;;;10.80;54.20;;;;;;5021788;28;20030;-80
2022/03/23 00:28:49;;;;;;;15.13;12.55;;;10.70;54.20;;;;;;5038798;28;20298;-80
2022/03/23 00:31:15;;;;;;;13.07;11.63;;;10.70;54.20;;;;;;5018996;28;20108;-79
2022/03/23 00:33:41;;;;;;;14.30;11.88;;;10.60;54.10;;;;;;5048131;28;20084;-79
2022/03/23 00:36:09;;;;;;;13.85;12.32;;;10.60;54.10;;;;;;5024021;28;20037;-79
2022/03/23 00:38:35;;;;;;;15.68;12.40;;;10.60;54.20;;;;;;5039562;28;20041;-80
2022/03/23 00:41:06;;;;;;;14.55;13.10;;;10.50;54.00;;;;;;5023629;28;20033;-80
2022/03/23 00:43:32;;;;;;;13.75;12.35;;;10.50;54.10;;;;;;5023656;28;20132;-81
2022/03/23 00:45:59;;;;;;;15.32;13.43;;;10.50;54.10;;;;;;5038836;28;20029;-82
2022/03/23 00:48:25;;;;;;;14.98;12.23;;;10.40;54.00;;;;;;5023838;28;20064;-81
2022/03/23 00:50:55;;;;;;;15.68;13.07;;;10.40;54.00;;;;;;5006145;28;20071;-80
2022/03/23 00:53:21;;;;;;;14.88;13.32;;;10.40;54.10;;;;;;5022833;28;20029;-80
2022/03/23 00:55:47;;;;;;;14.57;12.60;;;10.30;54.00;;;;;;5021990;28;20499;-80
2022/03/23 00:58:13;;;;;;;14.90;13.30;;;10.30;54.00;;;;;;5038152;28;20037;-81
2022/03/23 01:00:41;;;;;;;13.85;12.23;;;10.30;54.00;;;;;;5021351;28;20025;-80
2022/03/23 01:03:07;;;;;;;14.27;12.65;;;10.30;54.60;;;;;;5024804;28;20524;-81
2022/03/23 01:05:34;;;;;;;15.27;13.63;;;10.30;54.10;;;;;;5022023;28;20037;-81
2022/03/23 01:08:00;;;;;;;15.00;13.38;;;10.20;54.00;;;;;;5023033;28;20029;-79
2022/03/23 01:10:26;;;;;;;16.08;13.95;;;10.20;54.00;;;;;;5022213;28;20033;-80
2022/03/23 01:12:54;;;;;;;14.30;12.80;;;10.20;54.00;;;;;;5032704;28;20564;-79
2022/03/23 01:15:20;;;;;;;15.82;13.60;;;10.10;53.90;;;;;;5023958;28;20086;-79
2022/03/23 01:17:49;;;;;;;16.48;13.23;;;10.10;54.00;;;;;;5039092;28;20051;-79
2022/03/23 01:20:16;;;;;;;17.40;13.65;;;10.10;54.00;;;;;;5039021;28;20028;-79
2022/03/23 01:22:43;;;;;;;16.50;13.85;;;10.00;53.90;;;;;;5038855;28;20713;-79
2022/03/23 01:25:13;;;;;;;17.52;15.10;;;10.00;53.90;;;;;;5017997;28;20094;-79
2022/03/23 01:27:40;;;;;;;18.25;14.88;;;9.90;53.80;;;;;;5026212;28;20029;-78
2022/03/23 01:30:11;;;;;;;15.43;13.77;;;9.90;54.40;;;;;;5011233;28;20036;-78
2022/03/23 01:32:39;;;;;;;15.13;13.48;;;9.90;53.90;;;;;;5028434;28;20044;-79
2022/03/23 01:35:07;;;;;;;17.00;14.75;;;9.90;54.00;;;;;;5021987;28;20056;-79
2022/03/23 01:37:34;;;;;;;16.27;13.80;;;9.80;53.80;;;;;;5018677;28;20080;-79
2022/03/23 01:40:00;;;;;;;16.65;14.20;;;9.80;53.90;;;;;;5019004;28;20040;-79
2022/03/23 01:42:27;;;;;;;16.10;14.15;;;9.70;53.70;;;;;;5040750;28;20030;-79
2022/03/23 01:44:54;;;;;;;15.60;14.00;;;9.70;53.80;;;;;;5026237;28;20147;-79
2022/03/23 01:47:24;;;;;;;17.70;14.30;;;9.70;53.80;;;;;;5025085;28;20046;-79
2022/03/23 01:49:53;;;;;;;18.00;15.32;;;9.60;53.70;;;;;;5021367;28;20033;-78
2022/03/23 01:52:25;;;;;;;17.10;15.13;;;9.60;53.70;;;;;;5023659;28;21469;-79
2022/03/23 01:54:51;;;;;;;17.88;14.85;;;9.60;53.80;;;;;;5032307;28;20116;-80
2022/03/23 01:57:19;;;;;;;15.77;14.13;;;9.50;53.60;;;;;;5025242;28;20030;-81
2022/03/23 01:59:45;;;;;;;15.82;14.23;;;9.60;53.80;;;;;;5042534;28;20029;-79
2022/03/23 02:02:11;;;;;;;17.38;14.88;;;9.50;53.70;;;;;;5025864;28;20031;-79
2022/03/23 02:04:51;;;;;;;18.55;15.15;;;9.40;53.60;;;;;;5043719;28;20042;-79
2022/03/23 02:07:19;;;;;;;17.23;14.38;;;9.50;53.80;;;;;;5042748;28;20105;-79
2022/03/23 02:09:47;;;;;;;17.08;14.85;;;9.40;53.60;;;;;;5040250;28;20029;-78
2022/03/23 02:12:18;;;;;;;17.15;14.20;;;9.40;53.70;;;;;;5030214;28;20153;-79
2022/03/23 02:14:48;;;;;;;17.48;14.77;;;9.30;53.50;;;;;;5057299;28;20096;-78
2022/03/23 02:17:14;;;;;;;18.75;14.82;;;9.30;54.20;;;;;;5058163;28;20014;-79
2022/03/23 02:19:41;;;;;;;17.45;15.60;;;9.30;53.60;;;;;;5049335;28;20044;-77
2022/03/23 02:22:07;;;;;;;18.98;15.50;;;9.20;53.50;;;;;;5033721;28;20048;-81
2022/03/23 02:24:33;;;;;;;17.88;15.73;;;9.20;53.60;;;;;;5051451;28;20029;-81
2022/03/23 02:27:00;;;;;;;18.50;15.45;;;9.20;53.60;;;;;;5047928;28;20032;-80
2022/03/23 02:29:29;;;;;;;17.52;15.32;;;9.20;53.60;;;;;;5046169;28;20014;-81
2022/03/23 02:31:56;;;;;;;20.95;17.02;;;9.20;53.70;;;;;;5045108;28;20220;-80
2022/03/23 02:34:25;;;;;;;18.88;15.57;;;9.10;53.50;;;;;;5053492;28;20025;-81
2022/03/23 02:36:51;;;;;;;19.92;16.23;;;9.10;53.60;;;;;;5029000;28;20037;-79
2022/03/23 02:39:17;;;;;;;19.70;15.70;;;9.10;53.60;;;;;;5027099;28;20120;-79
2022/03/23 02:41:43;;;;;;;18.95;15.75;;;9.10;53.60;;;;;;5027559;28;20455;-79
2022/03/23 02:44:14;;;;;;;19.60;16.08;;;9.10;53.70;;;;;;5025530;28;20033;-79
2022/03/23 02:46:40;;;;;;;18.80;15.63;;;9.00;53.60;;;;;;5022909;28;20555;-81
2022/03/23 02:49:06;;;;;;;17.98;15.10;;;9.00;53.50;;;;;;5029313;28;20167;-80
2022/03/23 02:51:32;;;;;;;19.90;17.00;;;9.00;53.60;;;;;;5028680;28;20037;-80
2022/03/23 03:02:46;;;;;;;19.33;15.68;;;8.90;53.50;;;;;;5013386;28;20034;-80
2022/03/23 03:05:12;;;;;;;20.45;16.15;;;8.90;53.50;;;;;;5028731;28;20447;-80
2022/03/23 03:10:26;;;;;;;19.17;16.85;;;8.80;53.50;;;;;;5045342;28;20061;-81
2022/03/23 03:12:53;;;;;;;19.15;15.85;;;8.80;53.50;;;;;;5031089;28;20068;-81
2022/03/23 03:15:20;;;;;;;19.73;16.55;;;8.70;53.40;;;;;;5028893;28;20152;-82
2022/03/23 03:17:46;;;;;;;19.40;17.33;;;8.70;53.50;;;;;;5023431;28;20036;-81
2022/03/23 03:20:16;;;;;;;19.50;17.55;;;8.70;53.50;;;;;;5029903;28;20060;-81
2022/03/23 03:22:45;;;;;;;18.20;16.33;;;8.70;53.60;;;;;;5041951;28;20429;-81
2022/03/23 03:25:16;;;;;;;20.10;16.95;;;8.60;53.40;;;;;;5028519;28;20191;-80
2022/03/23 03:27:43;;;;;;;22.00;16.58;;;8.60;53.50;;;;;;5028293;28;20112;-81
2022/03/23 03:30:12;;;;;;;19.15;16.50;;;8.60;54.10;;;;;;5028068;28;20032;-81
2022/03/23 03:32:39;;;;;;;21.42;17.40;;;8.50;53.40;;;;;;5027897;28;20116;-81
2022/03/23 03:35:06;;;;;;;19.00;16.70;;;8.50;53.40;;;;;;5028864;28;20112;-80
2022/03/23 03:37:32;;;;;;;19.00;17.10;;;8.50;53.50;;;;;;5042591;28;20038;-80
2022/03/23 03:39:59;;;;;;;21.25;18.30;;;8.50;53.50;;;;;;5028042;28;20477;-81
2022/03/23 03:42:26;;;;;;;19.70;17.15;;;8.40;53.30;;;;;;5010416;28;20026;-81
2022/03/23 03:44:52;;;;;;;20.48;17.80;;;8.40;53.30;;;;;;5028067;28;20084;-80
2022/03/23 03:47:19;;;;;;;20.90;17.48;;;8.40;53.40;;;;;;5042267;28;20045;-80
2022/03/23 03:49:46;;;;;;;21.75;17.55;;;8.40;53.50;;;;;;5028043;28;20467;-80
2022/03/23 03:52:13;;;;;;;20.77;17.38;;;8.30;53.30;;;;;;5032260;28;20030;-80
2022/03/23 03:54:39;;;;;;;23.30;17.25;;;8.30;53.30;;;;;;5026837;28;20076;-80
2022/03/23 03:57:05;;;;;;;19.33;16.38;;;8.30;53.40;;;;;;5019008;28;20026;-80
2022/03/23 03:59:30;;;;;;;22.52;17.73;;;8.30;53.40;;;;;;5027693;28;20340;-80
2022/03/23 04:01:56;;;;;;;20.55;17.25;;;8.30;53.50;;;;;;5043394;28;20033;-81
2022/03/23 04:04:22;;;;;;;21.30;18.85;;;8.30;53.50;;;;;;5025390;28;20480;-81
2022/03/23 04:06:48;;;;;;;21.58;17.98;;;8.20;53.30;;;;;;5041699;28;20313;-81
2022/03/23 04:09:14;;;;;;;26.45;19.67;;;8.20;53.30;;;;;;5026673;28;20079;-80
2022/03/23 04:11:40;;;;;;;23.55;17.65;;;8.20;53.90;;;;;;5027527;28;20033;-80
2022/03/23 04:14:06;;;;;;;21.90;19.55;;;8.20;53.40;;;;;;5023697;28;20427;-80
2022/03/23 04:16:32;;;;;;;22.08;17.83;;;8.20;53.40;;;;;;5021351;28;20033;-81
2022/03/23 04:18:58;;;;;;;21.27;19.00;;;8.20;53.40;;;;;;5025066;28;20026;-80
2022/03/23 04:21:23;;;;;;;23.02;19.08;;;8.20;53.50;;;;;;5025308;28;20124;-80
2022/03/23 04:23:50;;;;;;;21.70;17.77;;;8.20;53.50;;;;;;5026761;28;20381;-80
2022/03/23 04:26:16;;;;;;;22.35;18.10;;;8.20;53.50;;;;;;5022615;28;20030;-80
2022/03/23 04:28:41;;;;;;;24.00;17.88;;;8.20;53.60;;;;;;5026276;28;20033;-80
2022/03/23 04:31:07;;;;;;;23.80;18.95;;;8.10;53.40;;;;;;5029908;28;20033;-81
2022/03/23 04:33:33;;;;;;;22.23;17.83;;;8.10;54.00;;;;;;5027530;28;20022;-81
2022/03/23 04:36:00;;;;;;;22.05;18.48;;;8.20;53.60;;;;;;5026726;28;20036;-80
2022/03/23 04:38:26;;;;;;;22.75;18.42;;;8.10;53.50;;;;;;5038079;28;20823;-81
2022/03/23 04:40:53;;;;;;;23.20;17.42;;;8.10;53.50;;;;;;5010018;28;20033;-80
2022/03/23 04:43:19;;;;;;;21.73;19.00;;;8.10;53.50;;;;;;5018986;28;20040;-80
2022/03/23 04:45:45;;;;;;;23.83;19.38;;;8.00;53.40;;;;;;5026642;28;20405;-81
2022/03/23 04:48:11;;;;;;;24.67;19.02;;;8.00;53.40;;;;;;5024534;28;20144;-81
2022/03/23 04:50:37;;;;;;;22.88;19.25;;;8.00;53.40;;;;;;5019120;28;20070;-81
2022/03/23 04:53:03;;;;;;;28.02;20.40;;;8.00;53.50;;;;;;5025028;28;20106;-80
2022/03/23 04:55:29;;;;;;;25.73;19.45;;;8.00;53.60;;;;;;5026338;28;20481;-80
2022/03/23 04:57:56;;;;;;;23.48;18.60;;;8.00;53.50;;;;;;5024633;28;20021;-80
2022/03/23 05:00:21;;;;;;;22.45;18.88;;;7.90;53.40;;;;;;5028215;28;20033;-80
2022/03/23 05:02:49;;;;;;;23.48;19.02;;;7.90;53.50;;;;;;5027694;28;20484;-80
2022/03/23 05:05:15;;;;;;;22.38;19.92;;;7.90;53.50;;;;;;5025347;28;20175;-81
2022/03/23 05:07:42;;;;;;;24.05;20.15;;;7.90;53.50;;;;;;5023582;28;20179;-80
2022/03/23 05:10:10;;;;;;;26.27;19.60;;;7.90;53.60;;;;;;5026571;28;20034;-79
2022/03/23 05:12:37;;;;;;;24.42;19.55;;;7.80;53.50;;;;;;5026050;28;20029;-80
2022/03/23 05:15:05;;;;;;;23.20;20.48;;;7.80;53.50;;;;;;5025826;28;20412;-80
2022/03/23 05:17:36;;;;;;;22.88;19.30;;;7.70;53.40;;;;;;5026661;28;20026;-79
2022/03/23 05:20:03;;;;;;;24.15;21.25;;;7.70;53.50;;;;;;5026178;28;20424;-81
2022/03/23 05:22:29;;;;;;;23.98;19.77;;;7.70;53.50;;;;;;5025224;28;20040;-82
2022/03/23 05:24:55;;;;;;;22.30;18.75;;;7.70;53.50;;;;;;5024289;28;20492;-83
2022/03/23 05:27:21;;;;;;;23.17;18.58;;;7.70;53.50;;;;;;5037283;28;20026;-81
2022/03/23 05:29:47;;;;;;;23.15;19.33;;;7.70;53.60;;;;;;5026369;28;20495;-81
2022/03/23 05:32:16;;;;;;;23.35;19.13;;;7.70;53.60;;;;;;5025053;28;20072;-80
2022/03/23 05:34:46;;;;;;;22.55;19.63;;;7.60;54.00;;;;;;5023160;28;20056;-80
2022/03/23 05:37:12;;;;;;;24.42;19.63;;;7.60;53.50;;;;;;5034099;28;20057;-80
2022/03/23 05:39:39;;;;;;;24.33;20.23;;;7.60;53.50;;;;;;5025918;28;20055;-80
2022/03/23 05:42:05;;;;;;;22.85;19.02;;;7.60;53.50;;;;;;5021829;28;20279;-80
2022/03/23 05:44:32;;;;;;;23.70;18.20;;;7.60;53.50;;;;;;5024020;28;20400;-81
2022/03/23 05:46:57;;;;;;;23.35;19.45;;;7.60;53.60;;;;;;5040892;28;20034;-81
2022/03/23 05:49:23;;;;;;;25.23;19.92;;;7.60;53.60;;;;;;5021860;28;20071;-82
2022/03/23 05:51:49;;;;;;;27.10;20.55;;;7.50;53.50;;;;;;5022959;28;20033;-80
2022/03/23 05:54:17;;;;;;;24.45;19.48;;;7.50;53.50;;;;;;5020295;28;20398;-81
2022/03/23 05:56:43;;;;;;;25.02;19.40;;;7.50;53.50;;;;;;5016036;28;20034;-81
2022/03/23 05:59:09;;;;;;;23.70;20.60;;;7.50;53.50;;;;;;5021685;28;20473;-81
2022/03/23 06:01:35;;;;;;;24.80;19.95;;;7.50;53.60;;;;;;5020254;28;20352;-81
2022/03/23 06:04:01;;;;;;;26.42;20.35;;;7.50;53.60;;;;;;5041517;28;20041;-82
2022/03/23 06:06:27;;;;;;;28.08;20.70;;;7.50;53.60;;;;;;5036543;28;20042;-83
2022/03/23 06:08:53;;;;;;;27.20;20.10;;;7.40;53.50;;;;;;5018377;28;20111;-82
2022/03/23 06:11:19;;;;;;;26.17;20.60;;;7.40;54.10;;;;;;5020506;28;20510;-81
2022/03/23 06:13:44;;;;;;;28.25;19.05;;;7.40;53.60;;;;;;5017875;28;20032;-87
2022/03/23 06:16:11;;;;;;;24.20;19.20;;;7.40;53.60;;;;;;5021744;28;20028;-83
2022/03/23 06:18:37;;;;;;;23.25;19.92;;;7.40;53.60;;;;;;5038520;28;21118;-83
2022/03/23 06:21:04;;;;;;;25.42;19.58;;;7.40;53.60;;;;;;5019268;28;20139;-83
2022/03/23 06:23:31;;;;;;;25.40;19.52;;;7.40;53.60;;;;;;5018930;28;20181;-85
2022/03/23 06:25:57;;;;;;;26.88;20.80;;;7.40;53.60;;;;;;5021728;28;20164;-82
2022/03/23 06:28:23;;;;;;;23.88;20.52;;;7.40;53.70;;;;;;5020846;28;20065;-83
2022/03/23 06:30:50;;;;;;;25.80;21.15;;;7.40;53.60;;;;;;5018374;28;20029;-85
2022/03/23 06:33:17;;;;;;;27.25;20.23;;;7.50;53.80;;;;;;5018539;28;20251;-82
2022/03/23 06:35:43;;;;;;;26.50;20.23;;;7.50;53.80;;;;;;5010502;28;20350;-93
2022/03/23 06:38:09;;;;;;;27.65;20.92;;;7.40;53.70;;;;;;5020552;28;20053;-96
2022/03/23 06:40:35;;;;;;;26.98;20.05;;;7.50;53.80;;;;;;5023655;28;20132;-87
2022/03/23 06:43:01;;;;;;;27.73;21.63;;;7.50;53.80;;;;;;5029554;28;20124;-93
2022/03/23 06:45:27;;;;;;;26.67;22.20;;;7.50;53.80;;;;;;5024236;28;20404;-86
2022/03/23 06:47:53;;;;;;;30.73;22.80;;;7.50;53.80;;;;;;5023995;28;20481;-89
2022/03/23 06:50:18;;;;;;;26.60;20.75;;;7.50;53.70;;;;;;5024041;28;20454;-88
2022/03/23 06:52:44;;;;;;;28.80;22.00;;;7.50;53.80;;;;;;5023289;28;20057;-91
2022/03/23 06:55:10;;;;;;;28.85;22.38;;;7.50;53.80;;;;;;5025235;28;20025;-88
2022/03/23 06:57:36;;;;;;;26.00;21.20;;;7.50;53.80;;;;;;4998864;28;20875;-83
2022/03/23 07:00:12;;;;;;;29.25;23.35;;;7.50;54.30;;;;;;5024536;28;20049;-88
2022/03/23 07:02:46;;;;;;;26.90;21.35;;;7.50;53.80;;;;;;5033478;28;20077;-85
2022/03/23 07:05:13;;;;;;;25.70;19.92;;;7.50;53.80;;;;;;5018779;28;20187;-84
2022/03/23 07:09:31;;;;;;;27.08;21.33;;;7.60;54.00;;;;;;5023029;28;20091;-87
2022/03/23 07:10:30;;;;;;;26.27;20.52;;;7.60;54.40;;;;;;5025011;28;20029;-82
2022/03/23 07:12:57;;;;;;;31.02;21.67;;;7.80;55.00;;;;;;5022494;28;20057;-82
2022/03/23 07:15:24;;;;;;;28.83;22.05;;;8.00;55.50;;;;;;5008311;28;20061;-87
2022/03/23 07:17:50;;;;;;;26.63;21.23;;;8.20;56.10;;;;;;5038415;28;20030;-93
2022/03/23 07:20:16;;;;;;;28.60;22.13;;;8.40;56.40;;;;;;5029378;28;20060;-94
2022/03/23 07:22:42;;;;;;;25.52;20.55;;;8.60;56.60;;;;;;5027510;28;20496;-94
2022/03/23 07:25:08;;;;;;;25.83;20.75;;;8.70;56.60;;;;;;5031448;28;20040;-82
2022/03/23 07:27:34;;;;;;;25.30;20.15;;;8.80;56.60;;;;;;5022302;28;20134;-86
2022/03/23 07:30:00;;;;;;;27.38;21.75;;;9.00;56.80;;;;;;5026307;28;20029;-85
2022/03/23 07:32:26;;;;;;;29.05;20.40;;;9.00;56.80;;;;;;5034047;28;20033;-85
2022/03/23 07:34:52;;;;;;;23.65;20.05;;;9.10;56.60;;;;;;5023678;28;20488;-83
2022/03/23 07:37:18;;;;;;;24.85;20.05;;;9.20;56.70;;;;;;5019155;28;20034;-82
2022/03/23 07:39:43;;;;;;;24.65;19.60;;;9.30;56.70;;;;;;5037907;28;20041;-81
2022/03/23 07:42:09;;;;;;;22.05;19.55;;;9.40;56.60;;;;;;5013986;28;20029;-81
2022/03/23 07:44:36;;;;;;;22.77;19.27;;;9.50;56.60;;;;;;5021064;28;20396;-82
2022/03/23 07:47:07;;;;;;;24.40;20.40;;;9.50;56.40;;;;;;5014307;28;20045;-84
2022/03/23 07:49:33;;;;;;;25.02;21.27;;;9.60;56.30;;;;;;5021261;28;20480;-83
2022/03/23 07:52:02;;;;;;;23.05;19.65;;;9.80;56.50;;;;;;5026713;28;20855;-84
2022/03/23 07:54:28;;;;;;;24.17;19.42;;;9.80;56.30;;;;;;5041304;28;20049;-84
2022/03/23 07:56:54;;;;;;;23.75;19.85;;;9.90;56.40;;;;;;5019534;28;20113;-83
2022/03/23 07:59:20;;;;;;;26.65;22.00;;;10.00;56.40;;;;;;5022431;28;20047;-83
2022/03/23 08:01:46;;;;;;;22.88;18.27;;;10.00;56.30;;;;;;5020014;28;20120;-84
2022/03/23 08:04:12;;;;;;;24.15;19.55;;;10.10;56.40;;;;;;5029057;28;20037;-84
2022/03/23 08:06:38;;;;;;;25.52;21.63;;;10.10;56.40;;;;;;5018521;28;20512;-82
2022/03/23 08:09:04;;;;;;;24.50;20.83;;;10.20;56.40;;;;;;5041800;28;20021;-85
2022/03/23 08:11:30;;;;;;;24.60;20.90;;;10.20;56.30;;;;;;5038516;28;20114;-86
2022/03/23 08:13:56;;;;;;;26.90;20.60;;;10.30;56.40;;;;;;5023829;28;20037;-82
2022/03/23 08:16:24;;;;;;;24.55;20.75;;;10.30;56.30;;;;;;5022497;28;20021;-83
2022/03/23 08:18:52;;;;;;;26.05;21.17;;;10.40;56.40;;;;;;5022882;28;20492;-82
2022/03/23 08:21:20;;;;;;;24.30;21.67;;;10.40;56.30;;;;;;5022545;28;20041;-83
2022/03/23 08:23:46;;;;;;;27.85;21.52;;;10.50;56.40;;;;;;5018375;28;20073;-81
2022/03/23 08:26:17;;;;;;;24.38;21.08;;;10.60;56.70;;;;;;5016126;28;20053;-81
2022/03/23 08:28:44;;;;;;;24.02;19.85;;;10.60;56.30;;;;;;5022066;28;20033;-82
2022/03/23 08:31:11;;;;;;;26.30;19.88;;;10.70;56.40;;;;;;5029365;28;20075;-82
2022/03/23 08:33:38;;;;;;;25.98;21.02;;;10.80;56.40;;;;;;5021248;28;20037;-83
2022/03/23 08:36:06;;;;;;;23.98;20.60;;;10.80;56.30;;;;;;5004676;28;20037;-83
2022/03/23 08:38:33;;;;;;;21.88;19.38;;;10.90;56.40;;;;;;5021337;28;20187;-83
2022/03/23 08:40:59;;;;;;;24.70;20.15;;;11.00;56.40;;;;;;5021197;28;20320;-80
2022/03/23 08:43:25;;;;;;;21.88;19.60;;;11.00;56.30;;;;;;5021511;28;20037;-83
2022/03/23 08:45:51;;;;;;;27.67;20.63;;;11.10;56.40;;;;;;5021591;28;20037;-86
2022/03/23 08:48:19;;;;;;;23.65;20.35;;;11.10;56.30;;;;;;5025243;28;20601;-84
2022/03/23 08:50:47;;;;;;;22.65;20.02;;;11.20;56.30;;;;;;5040146;28;20029;-86
2022/03/23 08:53:13;;;;;;;24.38;20.33;;;11.30;56.40;;;;;;5031197;28;20548;-85
2022/03/23 08:55:40;;;;;;;22.50;19.90;;;11.30;56.30;;;;;;5026743;28;20428;-84
2022/03/23 08:58:07;;;;;;;23.63;19.48;;;11.30;56.20;;;;;;5015351;28;20358;-84
2022/03/23 09:00:33;;;;;;;25.63;20.75;;;11.40;56.20;;;;;;5023396;28;20461;-85
2022/03/23 09:02:59;;;;;;;27.20;20.85;;;11.50;56.40;;;;;;5019925;28;20029;-83
2022/03/23 09:05:25;;;;;;;22.42;20.00;;;11.50;56.20;;;;;;5024758;28;20033;-84
2022/03/23 09:07:51;;;;;;;23.08;20.65;;;11.60;56.30;;;;;;5034620;28;20052;-85
2022/03/23 09:10:19;;;;;;;26.75;21.55;;;11.60;56.20;;;;;;5022751;28;20051;-83
2022/03/23 09:12:46;;;;;;;23.63;19.65;;;11.70;56.90;;;;;;5024298;28;20041;-83
2022/03/23 09:15:15;;;;;;;22.52;19.67;;;11.80;56.40;;;;;;5024162;28;20033;-83
2022/03/23 09:17:41;;;;;;;24.40;20.10;;;11.80;56.30;;;;;;5015690;28;20034;-81
2022/03/23 09:20:09;;;;;;;24.20;21.38;;;11.90;56.30;;;;;;5022592;28;20025;-86
2022/03/23 09:22:35;;;;;;;23.42;20.15;;;11.90;56.20;;;;;;5019608;28;20033;-88
2022/03/23 09:25:06;;;;;;;24.85;20.27;;;12.00;56.30;;;;;;5023105;28;20072;-83
2022/03/23 09:27:42;;;;;;;24.25;20.60;;;12.10;56.30;;;;;;5021277;28;20082;-90
2022/03/23 09:30:11;;;;;;;23.25;20.75;;;12.10;56.20;;;;;;5013424;28;20044;-80
2022/03/23 09:32:41;;;;;;;22.05;18.85;;;12.20;56.20;;;;;;5022678;28;20091;-92
2022/03/23 09:35:07;;;;;;;23.20;18.50;;;12.30;56.40;;;;;;5018281;28;20141;-86
2022/03/23 09:37:49;;;;;;;21.75;18.75;;;12.30;56.20;;;;;;4992922;28;20541;-87
2022/03/23 09:40:31;;;;;;;22.08;18.63;;;12.40;56.40;;;;;;5010707;28;20095;-86
2022/03/23 09:43:02;;;;;;;20.88;18.33;;;12.50;56.40;;;;;;5019937;28;20033;-89
2022/03/23 09:47:57;;;;;;;21.05;18.38;;;12.60;56.40;;;;;;5017761;28;20081;-83
2022/03/23 09:50:27;;;;;;;19.55;17.10;;;12.70;56.40;;;;;;5022897;28;20372;-84
2022/03/23 09:52:53;;;;;;;21.00;18.30;;;12.80;56.50;;;;;;5020842;28;20083;-81
2022/03/23 09:55:21;;;;;;;20.50;17.67;;;12.90;56.60;;;;;;5004959;28;20081;-83
2022/03/23 09:57:46;;;;;;;25.00;18.63;;;12.90;56.40;;;;;;5020839;28;20048;-82
2022/03/23 10:00:13;;;;;;;23.20;18.00;;;13.00;56.60;;;;;;5020483;28;20369;-86
2022/03/23 10:02:39;;;;;;;21.90;19.33;;;13.10;56.70;;;;;;5015727;28;20274;-83
2022/03/23 10:05:22;;;;;;;21.75;18.25;;;13.10;56.50;;;;;;5024996;28;20445;-90
2022/03/23 10:08:03;;;;;;;20.20;17.58;;;13.20;56.60;;;;;;5016698;28;20457;-89
2022/03/23 10:11:06;;;;;;;23.23;18.17;;;13.30;56.70;;;;;;5026563;28;20040;-95
2022/03/23 10:14:10;;;;;;;18.77;16.80;;;13.40;56.70;;;;;;5027114;28;20504;-95
2022/03/23 10:17:12;;;;;;;20.88;17.80;;;13.40;56.50;;;;;;5021814;28;20190;-93
2022/03/23 10:19:42;;;;;;;20.17;16.10;;;13.50;56.50;;;;;;5025230;28;20064;-95
2022/03/23 10:22:11;;;;;;;18.77;16.17;;;13.60;56.60;;;;;;5031934;28;20469;-93
2022/03/23 10:24:38;;;;;;;19.67;17.48;;;13.70;56.70;;;;;;5044577;28;20529;-91
2022/03/23 10:27:09;;;;;;;19.23;16.25;;;13.80;56.70;;;;;;5025111;28;20033;-85
2022/03/23 10:29:52;;;;;;;21.33;16.80;;;13.90;56.70;;;;;;5025651;28;20499;-95
2022/03/23 10:32:22;;;;;;;20.85;17.40;;;13.90;56.60;;;;;;5016604;28;20111;-95
2022/03/23 10:34:53;;;;;;;18.70;16.13;;;14.00;56.60;;;;;;5027021;28;20052;-92
2022/03/23 10:37:33;;;;;;;21.85;16.88;;;14.10;56.70;;;;;;5026697;28;20035;-88
2022/03/23 10:40:04;;;;;;;18.75;16.33;;;14.20;56.70;;;;;;5023735;28;20077;-92
2022/03/23 10:42:36;;;;;;;22.02;17.33;;;14.20;56.60;;;;;;5025912;28;20131;-91
2022/03/23 10:45:12;;;;;;;23.40;17.45;;;14.30;56.60;;;;;;5024020;28;20283;-91
2022/03/23 10:47:40;;;;;;;20.45;16.92;;;14.30;56.40;;;;;;5024411;28;20489;-86
2022/03/23 10:50:26;;;;;;;25.85;17.85;;;14.40;56.50;;;;;;5025924;28;20032;-88
2022/03/23 10:53:07;;;;;;;21.48;18.05;;;14.50;56.40;;;;;;5006719;28;20037;-90
2022/03/23 10:55:47;;;;;;;27.17;17.52;;;14.60;56.50;;;;;;5026419;28;20029;-84
2022/03/23 10:58:22;;;;;;;22.98;18.75;;;14.60;56.30;;;;;;5038541;28;20030;-83
2022/03/23 11:00:49;;;;;;;22.17;17.17;;;14.60;56.20;;;;;;5010811;28;20040;-88
2022/03/23 11:03:15;;;;;;;21.92;16.42;;;14.70;56.20;;;;;;5024618;28;20336;-79
2022/03/23 11:05:46;;;;;;;21.00;16.73;;;14.80;56.20;;;;;;5025180;28;20539;-78
2022/03/23 11:08:21;;;;;;;21.83;16.15;;;14.80;56.00;;;;;;5038618;28;20553;-79
2022/03/23 11:16:33;;;;;;;25.00;17.63;;;15.00;55.90;;;;;;5017453;28;20033;-79
2022/03/23 11:19:14;;;;;;;25.55;18.90;;;15.10;55.90;;;;;;5006377;28;20124;-86
2022/03/23 11:22:03;;;;;;;23.45;18.25;;;15.20;55.90;;;;;;5039108;28;20055;-84
2022/03/23 11:24:36;;;;;;;19.95;16.88;;;15.30;55.80;;;;;;5045051;28;20033;-85
2022/03/23 11:27:06;;;;;;;17.95;16.00;;;15.30;55.80;;;;;;5064394;28;20042;-84
2022/03/23 11:29:35;;;;;;;19.45;16.73;;;15.40;55.80;;;;;;5049379;28;20029;-84
2022/03/23 11:32:12;;;;;;;17.48;15.43;;;15.50;55.70;;;;;;5048147;28;20030;-83
2022/03/23 11:34:39;;;;;;;18.55;16.20;;;15.60;55.80;;;;;;5049365;28;20093;-85
2022/03/23 11:37:07;;;;;;;19.23;17.33;;;15.60;55.60;;;;;;5032200;28;20033;-85
2022/03/23 11:39:34;;;;;;;22.13;17.33;;;15.70;55.60;;;;;;5050453;28;20037;-86
2022/03/23 11:42:03;;;;;;;20.65;17.38;;;15.70;55.50;;;;;;5050853;28;20029;-85
2022/03/23 11:44:29;;;;;;;25.10;16.92;;;15.80;55.50;;;;;;5026477;28;20041;-85
2022/03/23 11:47:05;;;;;;;18.65;15.27;;;15.90;55.50;;;;;;5008046;28;20124;-85
2022/03/23 11:49:41;;;;;;;19.90;16.10;;;15.90;55.30;;;;;;5039571;28;20033;-85
2022/03/23 11:52:35;;;;;;;17.30;15.45;;;16.00;55.30;;;;;;5023826;28;20443;-82
2022/03/23 11:55:38;;;;;;;17.58;15.43;;;16.00;55.20;;;;;;5030741;28;20061;-83
2022/03/23 11:58:34;;;;;;;19.90;15.88;;;16.10;55.20;;;;;;5021617;28;20497;-83
2022/03/23 12:01:11;;;;;;;21.58;16.38;;;16.20;55.10;;;;;;5021315;28;20219;-83
2022/03/23 12:03:40;;;;;;;17.60;13.57;;;16.30;55.30;;;;;;5023145;28;20540;-84
2022/03/23 12:06:19;;;;;;;15.82;14.23;;;16.30;55.10;;;;;;5024221;28;20517;-82
2022/03/23 12:08:57;;;;;;;15.88;14.25;;;16.40;55.20;;;;;;5022286;28;20473;-83
2022/03/23 12:11:33;;;;;;;19.42;14.00;;;16.50;55.20;;;;;;5023537;28;20030;-85
2022/03/23 12:14:05;;;;;;;27.85;14.05;;;16.50;55.00;;;;;;5031376;28;20033;-81
2022/03/23 12:16:57;;;;;;;12.60;11.20;;;16.60;55.10;;;;;;5032866;28;20480;-85
2022/03/23 12:19:28;;;;;;;14.00;11.45;;;16.80;55.30;;;;;;5033499;28;20042;-83
2022/03/23 12:22:06;;;;;;;12.52;11.15;;;16.90;55.40;;;;;;5020538;28;20029;-80
2022/03/23 12:24:39;;;;;;;13.60;11.57;;;16.90;55.30;;;;;;5024334;28;20037;-85
2022/03/23 12:27:14;;;;;;;14.85;10.93;;;17.00;55.30;;;;;;5022048;28;20044;-83
2022/03/23 12:29:45;;;;;;;13.02;10.77;;;17.10;55.40;;;;;;5029780;28;20365;-91
2022/03/23 12:32:13;;;;;;;13.68;11.57;;;17.20;55.40;;;;;;5038075;28;20096;-94
2022/03/23 12:34:41;;;;;;;11.27;10.07;;;17.20;55.30;;;;;;5046264;28;20035;-96
2022/03/23 12:37:09;;;;;;;11.38;10.18;;;17.30;55.30;;;;;;5050030;28;20124;-96
2022/03/23 12:39:40;;;;;;;12.85;11.05;;;17.40;55.30;;;;;;5016281;28;20104;-91
2022/03/23 12:42:12;;;;;;;13.50;11.18;;;17.50;55.30;;;;;;5011432;28;20030;-94
2022/03/23 12:44:39;;;;;;;13.05;10.65;;;17.50;55.10;;;;;;5024096;28;20080;-92
2022/03/23 12:47:15;;;;;;;12.05;10.75;;;17.60;55.20;;;;;;5023611;28;20049;-92
2022/03/23 12:58:17;;;;;;;10.65;9.60;;;17.90;55.10;;;;;;5023068;28;20029;-83
2022/03/23 13:00:47;;;;;;;11.50;10.40;;;18.00;55.70;;;;;;5004326;28;20064;-86
2022/03/23 13:03:19;;;;;;;11.88;10.27;;;18.10;55.20;;;;;;5022703;28;20033;-86
2022/03/23 13:05:57;;;;;;;11.70;9.93;;;18.20;55.30;;;;;;5038927;28;20045;-85
2022/03/23 13:08:42;;;;;;;11.43;10.23;;;18.30;55.20;;;;;;5023428;28;20033;-86
2022/03/23 13:11:10;;;;;;;12.02;10.77;;;18.40;55.30;;;;;;5022871;28;20029;-79